Time;durP1;ratioP1;P1;durP2;ratioP2;P2;SDS_P1;SDS_P2;PMS_P1;PMS_P2;Temp;Humidity;BMP_temperature;BMP_pressure;BME280_temperature;BME280_humidity;BME280_pressure;Samples;Min_cycle;Max_cycle;Signal;HPM_P1;HPM_P2
2022/09/18 00:02:24;;;;;;;1.08;0.88;;;13.60;96.80;;;;;;5040378;28;20037;-72
2022/09/18 00:04:50;;;;;;;1.75;0.90;;;13.60;96.80;;;;;;5036783;28;20029;-72
2022/09/18 00:07:16;;;;;;;1.17;0.90;;;13.60;96.80;;;;;;5035093;28;20052;-72
2022/09/18 00:09:42;;;;;;;1.67;0.77;;;13.60;96.80;;;;;;5035698;28;20029;-71
2022/09/18 00:12:08;;;;;;;3.03;1.00;;;13.60;96.70;;;;;;5032952;28;20044;-71
2022/09/18 00:14:33;;;;;;;1.58;1.15;;;13.60;96.60;;;;;;5033886;28;20029;-69
2022/09/18 00:16:59;;;;;;;1.02;0.80;;;13.50;96.70;;;;;;5041445;28;20571;-69
2022/09/18 00:19:26;;;;;;;1.02;0.98;;;13.50;96.50;;;;;;5036956;28;20393;-72
2022/09/18 00:21:51;;;;;;;3.22;0.95;;;13.40;96.50;;;;;;5039490;28;20032;-69
2022/09/18 00:24:18;;;;;;;2.33;0.98;;;13.40;96.50;;;;;;5037612;28;20024;-72
2022/09/18 00:26:45;;;;;;;1.08;0.70;;;13.50;96.60;;;;;;5037040;28;20059;-71
2022/09/18 00:29:12;;;;;;;1.42;0.98;;;13.40;96.60;;;;;;5034393;28;20060;-68
2022/09/18 00:31:39;;;;;;;1.00;0.90;;;13.40;96.50;;;;;;5033930;28;20055;-69
2022/09/18 00:34:09;;;;;;;2.05;0.88;;;13.40;96.50;;;;;;5034312;28;20548;-69
2022/09/18 00:36:37;;;;;;;3.47;1.10;;;13.40;96.50;;;;;;5041103;28;20108;-72
2022/09/18 00:39:05;;;;;;;3.35;0.70;;;13.40;96.50;;;;;;5039076;28;20092;-72
2022/09/18 00:41:39;;;;;;;3.80;0.90;;;13.40;96.50;;;;;;5041204;28;20083;-72
2022/09/18 00:44:43;;;;;;;5.55;1.40;;;13.40;96.60;;;;;;5035961;28;20083;-72
2022/09/18 00:47:09;;;;;;;2.05;0.90;;;13.40;96.60;;;;;;5034040;28;20387;-69
2022/09/18 00:49:48;;;;;;;1.38;0.90;;;13.40;96.70;;;;;;5038511;28;20043;-72
2022/09/18 00:52:17;;;;;;;1.77;0.68;;;13.30;96.50;;;;;;5027108;28;20042;-68
2022/09/18 00:54:48;;;;;;;1.40;1.02;;;13.40;96.50;;;;;;5042024;28;20556;-72
2022/09/18 00:57:18;;;;;;;2.35;1.05;;;13.40;96.40;;;;;;5040050;28;20041;-71
2022/09/18 00:59:46;;;;;;;2.05;1.00;;;13.30;96.30;;;;;;5039279;28;20036;-71
2022/09/18 01:02:12;;;;;;;1.05;0.70;;;13.30;96.50;;;;;;5051888;28;20132;-72
2022/09/18 01:04:39;;;;;;;2.13;0.80;;;13.30;96.40;;;;;;5036331;28;20029;-69
2022/09/18 01:07:27;;;;;;;0.82;0.60;;;13.30;96.40;;;;;;5030876;28;20032;-72
2022/09/18 01:10:03;;;;;;;1.95;0.70;;;13.30;96.40;;;;;;5033829;28;20103;-72
2022/09/18 01:13:13;;;;;;;2.45;0.40;;;13.30;96.30;;;;;;5036448;28;20048;-71
2022/09/18 01:15:40;;;;;;;0.47;0.45;;;13.30;96.30;;;;;;5034552;28;20033;-72
2022/09/18 01:18:28;;;;;;;1.05;0.52;;;13.30;96.10;;;;;;5035590;28;20552;-71
2022/09/18 01:21:06;;;;;;;1.42;0.60;;;13.30;96.30;;;;;;5036225;28;20049;-71
2022/09/18 01:23:58;;;;;;;3.03;0.47;;;13.20;96.30;;;;;;5036219;28;20033;-71
2022/09/18 01:26:42;;;;;;;0.55;0.40;;;13.20;96.30;;;;;;5027332;28;20758;-71
2022/09/18 01:29:16;;;;;;;0.85;0.40;;;13.20;96.40;;;;;;5030470;28;20064;-71
2022/09/18 01:31:48;;;;;;;0.70;0.40;;;13.20;96.50;;;;;;5036763;28;20159;-69
2022/09/18 01:34:24;;;;;;;0.88;0.50;;;13.10;96.40;;;;;;5039871;28;20033;-71
2022/09/18 01:37:01;;;;;;;2.20;0.65;;;13.20;96.40;;;;;;5036692;28;20021;-71
2022/09/18 01:39:40;;;;;;;0.43;0.43;;;13.20;96.50;;;;;;5035767;28;20504;-72
2022/09/18 01:42:09;;;;;;;0.63;0.50;;;13.10;96.40;;;;;;5033189;28;20039;-71
2022/09/18 01:44:40;;;;;;;2.53;0.60;;;13.10;96.60;;;;;;5035191;28;20418;-71
2022/09/18 01:47:10;;;;;;;1.55;0.63;;;13.10;96.50;;;;;;5050557;28;20029;-71
2022/09/18 01:49:42;;;;;;;0.55;0.40;;;13.10;96.60;;;;;;5037491;28;20052;-71
2022/09/18 01:52:10;;;;;;;1.45;0.90;;;13.20;96.60;;;;;;5042283;28;20083;-71
2022/09/18 01:54:42;;;;;;;1.42;0.75;;;13.10;96.70;;;;;;5044054;28;20359;-71
2022/09/18 01:57:31;;;;;;;4.43;0.80;;;13.10;97.00;;;;;;5039590;28;20113;-71
2022/09/18 02:00:10;;;;;;;3.90;1.05;;;13.10;96.80;;;;;;5039667;28;20037;-71
2022/09/18 02:02:51;;;;;;;5.45;1.00;;;13.10;96.80;;;;;;5038091;28;20103;-71
2022/09/18 02:05:30;;;;;;;3.85;1.00;;;13.10;96.90;;;;;;5035181;28;20120;-71
2022/09/18 02:08:06;;;;;;;4.90;1.10;;;13.10;96.90;;;;;;5036139;28;20088;-71
2022/09/18 02:10:35;;;;;;;3.50;0.98;;;13.10;97.00;;;;;;5039532;28;20124;-71
2022/09/18 02:13:09;;;;;;;3.50;1.10;;;13.00;97.10;;;;;;5040972;28;20033;-71
2022/09/18 02:15:38;;;;;;;3.22;0.95;;;13.10;97.00;;;;;;5042208;28;20025;-71
2022/09/18 02:18:22;;;;;;;2.35;0.90;;;13.10;97.00;;;;;;5052915;28;20677;-72
2022/09/18 02:20:48;;;;;;;6.25;0.88;;;13.10;96.90;;;;;;5036342;28;20036;-72
2022/09/18 02:23:15;;;;;;;4.90;0.90;;;13.10;97.00;;;;;;5034525;28;20029;-69
2022/09/18 02:25:56;;;;;;;7.57;1.10;;;13.10;97.00;;;;;;5034038;28;20028;-69
2022/09/18 02:28:24;;;;;;;9.85;1.48;;;13.10;97.10;;;;;;5037201;28;20025;-72
2022/09/18 02:30:50;;;;;;;5.25;1.27;;;13.10;97.00;;;;;;5040715;28;20032;-71
2022/09/18 02:33:31;;;;;;;7.85;1.48;;;13.10;97.10;;;;;;5040101;28;20045;-72
2022/09/18 02:36:22;;;;;;;7.13;1.33;;;13.10;97.00;;;;;;5038380;28;20116;-71
2022/09/18 02:39:06;;;;;;;12.27;2.08;;;13.00;97.10;;;;;;5038497;28;20029;-71
2022/09/18 02:41:41;;;;;;;9.55;1.95;;;13.00;97.00;;;;;;5042117;28;20098;-71
2022/09/18 02:44:26;;;;;;;11.65;1.75;;;13.00;96.90;;;;;;5032323;28;20540;-72
2022/09/18 02:47:10;;;;;;;13.68;2.22;;;13.00;96.80;;;;;;5038143;28;20032;-71
2022/09/18 02:49:56;;;;;;;10.85;1.75;;;13.00;96.70;;;;;;5039023;28;20111;-71
2022/09/18 02:52:25;;;;;;;;;;;13.00;96.60;;;;;;5034343;28;20025;-71
2022/09/18 02:55:01;;;;;;;9.48;2.05;;;13.00;96.60;;;;;;5036590;28;19912;-70
2022/09/18 02:57:38;;;;;;;6.80;2.35;;;13.00;96.60;;;;;;5037510;28;20025;-70
2022/09/18 03:00:11;;;;;;;13.85;2.03;;;12.90;96.60;;;;;;5033379;28;20043;-71
2022/09/18 03:02:37;;;;;;;10.98;2.55;;;12.90;96.40;;;;;;5035258;28;20024;-71
2022/09/18 03:05:05;;;;;;;12.68;1.83;;;12.90;96.50;;;;;;5034984;28;20076;-71
2022/09/18 03:07:39;;;;;;;11.50;2.25;;;12.90;96.20;;;;;;5041953;28;20451;-71
2022/09/18 03:10:07;;;;;;;6.65;1.60;;;12.80;96.30;;;;;;5038826;28;20599;-72
2022/09/18 03:12:33;;;;;;;10.45;2.15;;;12.80;96.20;;;;;;5042209;28;20557;-71
2022/09/18 03:15:01;;;;;;;10.60;2.30;;;12.80;96.20;;;;;;5037673;28;20032;-71
2022/09/18 03:17:27;;;;;;;12.43;2.28;;;12.80;96.20;;;;;;5036243;28;20531;-71
2022/09/18 03:19:53;;;;;;;6.72;2.10;;;12.80;96.10;;;;;;5033197;28;20695;-71
2022/09/18 03:22:19;;;;;;;9.65;2.35;;;12.80;96.20;;;;;;5034687;28;20030;-71
2022/09/18 03:24:44;;;;;;;13.20;2.33;;;12.80;96.20;;;;;;5039265;28;20485;-71
2022/09/18 03:27:12;;;;;;;6.18;1.98;;;12.70;96.20;;;;;;5039331;28;20488;-71
2022/09/18 03:29:38;;;;;;;7.40;1.92;;;12.70;96.20;;;;;;5042036;28;20029;-71
2022/09/18 03:32:04;;;;;;;17.90;2.45;;;12.70;96.30;;;;;;5037792;28;20033;-71
2022/09/18 03:34:38;;;;;;;9.77;2.03;;;12.80;96.20;;;;;;5042124;28;20029;-71
2022/09/18 03:37:04;;;;;;;10.25;2.30;;;12.70;96.10;;;;;;5032897;28;20040;-72
2022/09/18 03:39:30;;;;;;;6.75;1.73;;;12.70;96.00;;;;;;5034836;28;20033;-71
2022/09/18 03:41:57;;;;;;;7.30;1.73;;;12.70;95.90;;;;;;5030397;28;20300;-72
2022/09/18 03:44:22;;;;;;;5.65;1.27;;;12.80;95.80;;;;;;5042304;28;20193;-71
2022/09/18 03:46:49;;;;;;;6.50;1.52;;;12.70;95.80;;;;;;5041341;28;20068;-71
2022/09/18 03:49:14;;;;;;;8.25;1.38;;;12.60;95.80;;;;;;5037359;28;20083;-71
2022/09/18 03:51:42;;;;;;;3.13;0.85;;;12.60;96.00;;;;;;5037344;28;20032;-71
2022/09/18 03:54:08;;;;;;;7.00;1.65;;;12.60;95.90;;;;;;5034100;28;20033;-71
2022/09/18 03:56:50;;;;;;;9.05;1.00;;;12.60;95.90;;;;;;5035538;28;20047;-71
2022/09/18 03:59:24;;;;;;;4.80;0.98;;;12.60;95.90;;;;;;5035377;28;20115;-71
2022/09/18 04:01:50;;;;;;;7.43;1.35;;;12.60;95.90;;;;;;5038627;28;20573;-71
2022/09/18 04:04:36;;;;;;;8.68;1.48;;;12.60;95.90;;;;;;5038757;28;20025;-71
2022/09/18 04:07:17;;;;;;;7.57;1.05;;;12.60;95.80;;;;;;5044897;28;20033;-71
2022/09/18 04:09:51;;;;;;;7.43;1.63;;;12.60;95.70;;;;;;5036967;28;20501;-71
2022/09/18 04:12:17;;;;;;;8.10;1.27;;;12.50;95.70;;;;;;5034877;28;20044;-71
2022/09/18 04:14:49;;;;;;;5.80;1.67;;;12.50;95.80;;;;;;5035591;28;20759;-71
2022/09/18 04:17:16;;;;;;;10.70;1.65;;;12.50;95.80;;;;;;5033561;28;20044;-71
2022/09/18 04:19:42;;;;;;;8.95;1.20;;;12.40;95.70;;;;;;5031536;28;20024;-70
2022/09/18 04:22:09;;;;;;;8.88;1.48;;;12.40;95.70;;;;;;5037465;28;20111;-71
2022/09/18 04:24:38;;;;;;;3.85;0.85;;;12.40;95.70;;;;;;5040955;28;20101;-71
2022/09/18 04:27:06;;;;;;;10.43;1.05;;;12.30;95.70;;;;;;5035694;28;20025;-71
2022/09/18 04:29:32;;;;;;;6.55;1.38;;;12.30;95.70;;;;;;5040592;28;20029;-71
2022/09/18 04:31:59;;;;;;;5.13;0.90;;;12.30;95.70;;;;;;5033024;28;20036;-71
2022/09/18 04:34:25;;;;;;;5.60;1.38;;;12.20;95.70;;;;;;5036547;28;20130;-71
2022/09/18 04:36:52;;;;;;;6.82;1.10;;;12.20;95.50;;;;;;5032035;28;20108;-71
2022/09/18 04:39:18;;;;;;;4.82;0.82;;;12.20;95.60;;;;;;5031678;28;20111;-71
2022/09/18 04:41:44;;;;;;;7.47;1.30;;;12.10;95.50;;;;;;5038801;28;20481;-71
2022/09/18 04:44:11;;;;;;;5.43;1.10;;;12.10;95.60;;;;;;5037527;28;20033;-71
2022/09/18 04:46:37;;;;;;;5.63;1.35;;;12.10;95.60;;;;;;5036880;28;20060;-72
2022/09/18 04:49:02;;;;;;;7.57;1.95;;;12.10;95.70;;;;;;5035940;28;20068;-71
2022/09/18 04:51:29;;;;;;;6.93;1.10;;;12.10;95.60;;;;;;5041116;28;20032;-72
2022/09/18 04:53:55;;;;;;;7.70;1.85;;;12.10;95.50;;;;;;5033719;28;20054;-72
2022/09/18 04:56:22;;;;;;;5.38;1.55;;;12.10;95.50;;;;;;5034845;28;20444;-71
2022/09/18 04:58:51;;;;;;;9.40;1.33;;;12.20;95.30;;;;;;5036535;28;20041;-72
2022/09/18 05:01:17;;;;;;;7.47;1.23;;;12.20;95.10;;;;;;5039873;28;20139;-71
2022/09/18 05:03:42;;;;;;;12.35;1.10;;;12.10;95.00;;;;;;5038765;28;20135;-71
2022/09/18 05:06:17;;;;;;;5.57;1.02;;;12.10;94.80;;;;;;5036342;28;20030;-71
2022/09/18 05:08:44;;;;;;;4.93;1.30;;;12.10;94.90;;;;;;5035630;28;20055;-71
2022/09/18 05:11:10;;;;;;;6.70;1.30;;;12.00;94.90;;;;;;5032524;28;20037;-70
2022/09/18 05:13:38;;;;;;;5.72;1.30;;;12.00;94.90;;;;;;5034543;28;20021;-69
2022/09/18 05:16:11;;;;;;;8.95;1.42;;;11.90;94.80;;;;;;5033703;28;20034;-69
2022/09/18 05:18:39;;;;;;;11.43;1.65;;;11.90;94.90;;;;;;5040611;28;20485;-70
2022/09/18 05:21:05;;;;;;;14.27;1.20;;;11.90;94.70;;;;;;5040955;28;20029;-69
2022/09/18 05:23:33;;;;;;;7.97;1.05;;;11.90;94.90;;;;;;5043680;28;20035;-69
2022/09/18 05:26:00;;;;;;;5.93;1.08;;;11.90;94.80;;;;;;5037855;28;20084;-69
2022/09/18 05:28:26;;;;;;;8.02;1.67;;;11.90;94.70;;;;;;5041445;28;20124;-69
2022/09/18 05:30:58;;;;;;;5.68;1.00;;;11.90;94.80;;;;;;5035696;28;20017;-69
2022/09/18 05:33:27;;;;;;;10.70;1.40;;;11.80;94.70;;;;;;5037188;28;20112;-69
2022/09/18 05:35:56;;;;;;;8.50;1.80;;;11.80;94.70;;;;;;5036509;28;20547;-69
2022/09/18 05:38:23;;;;;;;9.27;1.42;;;11.80;94.60;;;;;;5042625;28;20117;-69
2022/09/18 05:40:51;;;;;;;10.77;1.33;;;11.80;94.60;;;;;;5042835;28;20029;-69
2022/09/18 05:43:17;;;;;;;10.73;1.45;;;11.70;94.70;;;;;;5039863;28;20063;-69
2022/09/18 05:45:46;;;;;;;9.07;1.38;;;11.80;94.90;;;;;;5039623;28;20103;-69
2022/09/18 05:48:17;;;;;;;7.97;1.05;;;11.80;94.80;;;;;;5037623;28;20497;-69
2022/09/18 05:50:44;;;;;;;6.43;1.13;;;11.70;94.80;;;;;;5037794;28;20029;-69
2022/09/18 05:53:14;;;;;;;7.25;1.33;;;11.70;94.90;;;;;;5036136;28;20037;-69
2022/09/18 05:56:03;;;;;;;4.07;0.82;;;11.70;94.80;;;;;;5041418;28;20617;-69
2022/09/18 05:58:30;;;;;;;6.65;1.30;;;11.70;94.80;;;;;;5042166;28;20036;-69
2022/09/18 06:00:58;;;;;;;5.95;1.30;;;11.70;95.00;;;;;;5040467;28;20032;-69
2022/09/18 06:03:31;;;;;;;7.57;1.40;;;11.70;94.80;;;;;;5039109;28;20074;-69
2022/09/18 06:05:59;;;;;;;9.00;1.42;;;11.70;94.80;;;;;;5036608;28;20025;-69
2022/09/18 06:08:25;;;;;;;11.20;1.30;;;11.70;94.80;;;;;;5036311;28;20025;-69
2022/09/18 06:10:53;;;;;;;11.50;1.33;;;11.80;95.20;;;;;;5034343;28;20021;-69
2022/09/18 06:13:19;;;;;;;7.50;1.55;;;11.80;94.80;;;;;;5034809;28;20991;-69
2022/09/18 06:15:53;;;;;;;5.40;1.02;;;11.80;94.80;;;;;;5043815;28;20035;-68
2022/09/18 06:18:33;;;;;;;7.63;1.25;;;11.90;94.80;;;;;;5038769;28;20861;-69
2022/09/18 06:21:01;;;;;;;8.55;1.52;;;11.90;94.70;;;;;;5038582;28;20021;-70
2022/09/18 06:23:28;;;;;;;5.88;0.95;;;11.90;94.50;;;;;;5043168;28;20028;-69
2022/09/18 06:26:05;;;;;;;10.10;1.55;;;11.90;94.70;;;;;;5035479;28;20067;-69
2022/09/18 06:28:33;;;;;;;5.30;1.40;;;11.90;94.70;;;;;;5043060;28;20021;-69
2022/09/18 06:31:03;;;;;;;9.32;1.55;;;12.00;94.70;;;;;;5031063;28;20052;-69
2022/09/18 06:33:37;;;;;;;9.88;1.60;;;12.10;94.70;;;;;;5038603;28;20082;-69
2022/09/18 06:36:07;;;;;;;6.68;1.10;;;12.10;94.70;;;;;;5040604;28;20424;-69
2022/09/18 06:38:41;;;;;;;9.38;1.60;;;12.10;94.60;;;;;;5042765;28;20116;-69
2022/09/18 06:41:07;;;;;;;4.70;1.23;;;12.20;94.60;;;;;;5037380;28;20153;-69
2022/09/18 06:43:49;;;;;;;9.57;1.67;;;12.30;94.60;;;;;;5037809;28;20821;-69
2022/09/18 06:46:29;;;;;;;7.35;1.77;;;12.30;94.30;;;;;;5039473;28;20047;-69
2022/09/18 06:48:58;;;;;;;8.30;1.42;;;12.40;94.20;;;;;;5032479;28;20040;-69
2022/09/18 06:51:24;;;;;;;8.70;1.48;;;12.50;94.20;;;;;;5034333;28;20029;-69
2022/09/18 06:54:05;;;;;;;5.63;1.10;;;12.60;94.10;;;;;;5039417;28;20041;-69
2022/09/18 06:56:31;;;;;;;6.18;1.27;;;12.70;93.70;;;;;;5042438;28;20025;-69
2022/09/18 06:58:57;;;;;;;8.38;1.38;;;12.80;93.20;;;;;;5038729;28;20029;-69
2022/09/18 07:01:23;;;;;;;11.63;1.10;;;12.80;92.90;;;;;;5036542;28;20025;-70
2022/09/18 07:03:53;;;;;;;10.95;1.20;;;12.80;92.90;;;;;;5034907;28;20537;-67
2022/09/18 07:06:21;;;;;;;9.32;1.23;;;12.80;92.90;;;;;;5033854;28;20037;-69
2022/09/18 07:08:49;;;;;;;9.13;1.10;;;12.80;93.00;;;;;;5030709;28;20032;-69
2022/09/18 07:11:35;;;;;;;5.78;1.23;;;12.90;93.00;;;;;;5037722;28;20129;-69
2022/09/18 07:14:06;;;;;;;6.93;1.00;;;12.90;92.50;;;;;;5040192;28;20028;-69
2022/09/18 07:16:31;;;;;;;4.57;1.20;;;12.90;92.60;;;;;;5041732;28;20025;-69
2022/09/18 07:18:57;;;;;;;6.03;1.13;;;12.90;92.50;;;;;;5036029;28;20048;-69
2022/09/18 07:21:23;;;;;;;7.82;1.08;;;13.00;92.60;;;;;;5036055;28;20116;-69
2022/09/18 07:23:49;;;;;;;5.45;1.25;;;13.00;92.40;;;;;;5034168;28;20086;-69
2022/09/18 07:26:15;;;;;;;4.45;0.95;;;13.10;92.60;;;;;;5033070;28;20522;-69
2022/09/18 07:28:45;;;;;;;5.10;1.20;;;13.20;92.30;;;;;;5033981;28;20029;-69
2022/09/18 07:31:25;;;;;;;6.05;1.13;;;13.30;92.40;;;;;;5042356;28;20031;-70
2022/09/18 07:33:54;;;;;;;8.95;1.58;;;13.40;91.90;;;;;;5039139;28;20058;-69
2022/09/18 07:36:23;;;;;;;5.38;1.27;;;13.60;91.80;;;;;;5038492;28;20098;-69
2022/09/18 07:38:50;;;;;;;10.48;1.20;;;13.80;91.40;;;;;;5036088;28;20029;-69
2022/09/18 07:41:18;;;;;;;6.95;1.02;;;14.00;90.60;;;;;;5034578;28;20025;-70
2022/09/18 07:43:47;;;;;;;6.80;1.10;;;14.10;90.40;;;;;;5033685;28;20056;-70
2022/09/18 07:46:13;;;;;;;3.35;0.82;;;14.20;90.20;;;;;;5032099;28;20028;-69
2022/09/18 07:48:39;;;;;;;6.28;1.08;;;14.20;89.40;;;;;;5036672;28;20021;-69
2022/09/18 07:51:26;;;;;;;5.72;1.02;;;14.20;90.00;;;;;;5038450;28;20021;-69
2022/09/18 07:53:53;;;;;;;6.10;0.75;;;14.30;89.20;;;;;;5038259;28;20036;-69
2022/09/18 07:56:30;;;;;;;9.98;1.55;;;14.30;89.30;;;;;;5037922;28;20033;-69
2022/09/18 07:58:56;;;;;;;9.27;1.25;;;14.30;89.70;;;;;;5033993;28;20708;-70
2022/09/18 08:01:26;;;;;;;6.10;0.93;;;14.20;89.60;;;;;;5033873;28;20099;-69
2022/09/18 08:03:54;;;;;;;6.90;1.48;;;14.30;90.00;;;;;;5031812;28;20802;-70
2022/09/18 08:06:53;;;;;;;5.38;0.95;;;14.20;90.00;;;;;;5068642;28;20032;-70
2022/09/18 08:09:49;;;;;;;6.88;1.90;;;14.30;90.20;;;;;;5044247;28;20045;-69
2022/09/18 08:12:35;;;;;;;8.15;1.05;;;14.30;90.00;;;;;;5037882;28;20032;-69
2022/09/18 08:15:16;;;;;;;9.52;2.30;;;14.40;89.50;;;;;;5037213;28;20041;-69
2022/09/18 08:18:03;;;;;;;5.47;1.48;;;14.50;88.80;;;;;;5034375;28;20100;-69
2022/09/18 08:20:49;;;;;;;9.25;2.05;;;14.60;88.00;;;;;;5038510;28;20048;-70
2022/09/18 08:23:27;;;;;;;7.40;1.35;;;14.60;87.20;;;;;;5033065;28;20041;-70
2022/09/18 08:25:53;;;;;;;10.20;1.73;;;14.70;87.30;;;;;;5032788;28;20126;-70
2022/09/18 08:28:19;;;;;;;7.10;1.10;;;14.70;85.50;;;;;;5038402;28;20061;-70
2022/09/18 08:30:58;;;;;;;;;;;14.70;86.30;;;;;;5036879;28;20021;-70
2022/09/18 08:33:24;;;;;;;8.50;1.33;;;14.70;87.40;;;;;;5036496;28;19913;-70
2022/09/18 08:35:49;;;;;;;8.88;0.95;;;14.90;87.40;;;;;;5033938;28;20428;-70
2022/09/18 08:38:20;;;;;;;8.45;1.38;;;15.00;84.90;;;;;;5034190;28;20029;-70
2022/09/18 08:41:14;;;;;;;10.52;1.05;;;15.00;84.10;;;;;;5032262;28;20040;-70
2022/09/18 08:44:06;;;;;;;9.35;1.17;;;14.90;84.10;;;;;;5036295;28;20025;-70
2022/09/18 08:46:38;;;;;;;5.82;1.10;;;15.00;83.10;;;;;;5038266;28;20025;-70
2022/09/18 08:49:27;;;;;;;7.22;1.13;;;15.00;83.50;;;;;;5036395;28;20132;-70
2022/09/18 08:52:09;;;;;;;6.32;1.00;;;15.10;84.10;;;;;;5036386;28;20401;-69
2022/09/18 08:54:54;;;;;;;5.25;1.05;;;15.30;84.30;;;;;;5043059;28;20029;-70
2022/09/18 08:57:42;;;;;;;8.32;1.17;;;15.30;82.10;;;;;;5038379;28;20572;-70
2022/09/18 09:00:46;;;;;;;5.78;1.20;;;15.40;81.40;;;;;;5036964;28;20037;-70
2022/09/18 09:03:50;;;;;;;6.50;1.02;;;15.30;80.60;;;;;;5038162;28;20017;-71
2022/09/18 09:06:37;;;;;;;10.65;1.55;;;15.30;81.60;;;;;;5042882;28;20034;-70
2022/09/18 09:09:41;;;;;;;4.80;0.77;;;15.30;82.60;;;;;;5038822;28;20866;-70
2022/09/18 09:12:27;;;;;;;4.60;0.90;;;15.30;82.70;;;;;;5041774;28;20045;-70
2022/09/18 09:15:21;;;;;;;4.35;0.90;;;15.30;81.50;;;;;;5042140;28;20025;-70
2022/09/18 09:18:16;;;;;;;10.77;1.73;;;15.30;81.80;;;;;;5036157;28;20103;-70
2022/09/18 09:20:54;;;;;;;5.80;0.80;;;15.40;81.80;;;;;;5038724;28;20048;-70
2022/09/18 09:23:48;;;;;;;11.15;1.15;;;15.40;80.40;;;;;;5043741;28;20079;-70
2022/09/18 09:26:23;;;;;;;5.20;1.33;;;15.50;80.30;;;;;;5042656;28;20033;-70
2022/09/18 09:29:12;;;;;;;6.20;0.90;;;15.70;81.40;;;;;;5039339;28;20036;-71
2022/09/18 09:32:28;;;;;;;5.78;1.25;;;15.80;80.50;;;;;;5040111;28;20406;-70
2022/09/18 09:35:23;;;;;;;8.07;1.10;;;15.70;79.80;;;;;;5034949;28;20037;-70
2022/09/18 09:38:35;;;;;;;3.60;0.85;;;15.80;81.60;;;;;;5041531;28;20497;-70
2022/09/18 09:41:27;;;;;;;7.25;1.23;;;16.00;81.20;;;;;;5034043;28;20029;-70
2022/09/18 09:43:53;;;;;;;6.28;1.27;;;16.10;81.60;;;;;;5039188;28;20029;-70
2022/09/18 09:46:48;;;;;;;10.73;1.45;;;16.30;77.90;;;;;;5040291;28;20040;-71
2022/09/18 09:49:21;;;;;;;3.95;0.73;;;16.50;74.20;;;;;;5038633;28;20061;-70
2022/09/18 09:52:24;;;;;;;10.57;1.00;;;16.50;78.50;;;;;;5040389;28;20112;-70
2022/09/18 09:55:13;;;;;;;9.00;1.50;;;16.60;77.40;;;;;;5024581;28;20064;-70
2022/09/18 09:58:21;;;;;;;5.35;1.17;;;16.70;75.70;;;;;;5035706;28;20029;-69
2022/09/18 10:01:14;;;;;;;7.72;1.25;;;16.90;77.40;;;;;;5024578;28;20032;-70
2022/09/18 10:03:46;;;;;;;8.35;1.23;;;17.20;74.50;;;;;;5015722;28;20045;-70
2022/09/18 10:06:28;;;;;;;6.13;1.25;;;17.20;74.40;;;;;;5038792;28;20033;-70
2022/09/18 10:09:15;;;;;;;9.32;1.35;;;17.60;73.80;;;;;;5039004;28;20710;-70
2022/09/18 10:11:47;;;;;;;3.72;0.77;;;18.00;70.00;;;;;;5039962;28;20036;-70
2022/09/18 10:14:24;;;;;;;6.07;1.40;;;18.00;67.10;;;;;;5035654;28;20498;-70
2022/09/18 10:16:52;;;;;;;8.45;1.13;;;17.80;67.80;;;;;;5037450;28;20025;-70
2022/09/18 10:19:21;;;;;;;5.03;0.90;;;17.60;69.00;;;;;;5038168;28;20489;-70
2022/09/18 10:21:50;;;;;;;6.78;1.02;;;17.40;68.90;;;;;;5043765;28;20021;-70
2022/09/18 10:24:38;;;;;;;6.88;1.40;;;17.20;69.30;;;;;;5040062;28;20400;-70
2022/09/18 10:27:14;;;;;;;5.93;0.90;;;17.10;68.50;;;;;;5040539;28;20025;-70
2022/09/18 10:29:41;;;;;;;8.27;1.23;;;17.00;70.30;;;;;;5039505;28;20029;-70
2022/09/18 10:32:12;;;;;;;4.30;1.02;;;16.90;71.30;;;;;;5035396;28;20041;-70
2022/09/18 10:34:44;;;;;;;6.55;0.98;;;16.80;70.50;;;;;;5035492;28;20025;-70
2022/09/18 10:37:27;;;;;;;4.55;0.88;;;16.70;71.00;;;;;;5032918;28;20039;-70
2022/09/18 10:39:58;;;;;;;4.65;1.13;;;16.70;72.50;;;;;;5039464;28;20037;-69
2022/09/18 10:42:28;;;;;;;8.20;1.30;;;16.60;71.00;;;;;;5037522;28;20021;-70
2022/09/18 10:45:18;;;;;;;5.10;1.00;;;16.50;71.70;;;;;;5038027;28;20025;-70
2022/09/18 10:47:45;;;;;;;2.60;0.75;;;16.40;71.10;;;;;;5039152;28;20032;-70
2022/09/18 10:50:12;;;;;;;5.53;1.05;;;16.30;72.80;;;;;;5038794;28;20128;-70
2022/09/18 10:52:45;;;;;;;4.65;0.77;;;16.20;72.10;;;;;;5035950;28;20025;-70
2022/09/18 10:55:28;;;;;;;9.60;1.95;;;16.10;73.80;;;;;;5034146;28;20032;-70
2022/09/18 10:58:14;;;;;;;3.80;1.20;;;16.00;74.10;;;;;;5041568;28;20036;-70
2022/09/18 11:01:05;;;;;;;5.68;1.00;;;15.90;74.50;;;;;;5042738;28;20259;-70
2022/09/18 11:04:00;;;;;;;8.75;1.10;;;16.10;76.80;;;;;;5034731;28;20112;-70
2022/09/18 11:06:32;;;;;;;6.75;0.93;;;16.30;74.80;;;;;;5052741;28;20029;-70
2022/09/18 11:09:09;;;;;;;5.05;0.90;;;16.50;73.10;;;;;;5034269;28;20414;-70
2022/09/18 11:11:43;;;;;;;7.55;1.20;;;16.70;72.90;;;;;;5035265;28;20472;-70
2022/09/18 11:14:37;;;;;;;6.25;1.13;;;16.80;71.80;;;;;;5033217;28;20128;-70
2022/09/18 11:17:32;;;;;;;4.13;1.13;;;16.80;70.40;;;;;;5036947;28;20493;-70
2022/09/18 11:20:02;;;;;;;4.28;0.82;;;17.00;72.00;;;;;;5038167;28;20036;-70
2022/09/18 11:22:44;;;;;;;7.30;1.40;;;17.20;69.90;;;;;;5042364;28;20020;-70
2022/09/18 11:25:31;;;;;;;8.50;1.27;;;17.30;69.10;;;;;;5037437;28;20608;-70
2022/09/18 11:28:27;;;;;;;7.13;1.00;;;17.40;68.30;;;;;;5030833;28;20061;-70
2022/09/18 11:31:05;;;;;;;5.35;1.25;;;17.40;68.50;;;;;;5032386;28;20036;-70
2022/09/18 11:33:45;;;;;;;5.18;0.65;;;17.40;68.80;;;;;;5038613;28;20029;-70
2022/09/18 11:36:14;;;;;;;4.55;0.73;;;17.30;68.60;;;;;;5040562;28;20127;-70
2022/09/18 11:38:44;;;;;;;5.22;1.10;;;17.40;69.10;;;;;;5041925;28;20071;-71
2022/09/18 11:41:19;;;;;;;5.68;1.00;;;17.40;68.50;;;;;;5037341;28;20099;-71
2022/09/18 11:43:59;;;;;;;6.57;0.93;;;17.40;69.20;;;;;;5037706;28;20056;-70
2022/09/18 11:47:05;;;;;;;4.68;0.90;;;17.30;67.90;;;;;;5040072;28;20029;-69
2022/09/18 11:49:56;;;;;;;2.58;0.80;;;17.10;66.80;;;;;;5031116;28;20022;-70
2022/09/18 11:52:44;;;;;;;11.25;1.20;;;17.00;68.80;;;;;;5033070;28;20040;-70
2022/09/18 11:55:35;;;;;;;6.40;0.88;;;17.10;68.60;;;;;;5039459;28;20025;-70
2022/09/18 11:58:23;;;;;;;9.18;1.08;;;17.10;70.50;;;;;;5037455;28;20055;-70
2022/09/18 12:00:55;;;;;;;9.38;1.27;;;17.10;69.70;;;;;;5035821;28;20103;-70
2022/09/18 12:03:29;;;;;;;10.65;1.40;;;17.10;71.20;;;;;;5037156;28;20029;-70
2022/09/18 12:05:59;;;;;;;3.55;0.68;;;17.10;71.30;;;;;;5033357;28;20339;-70
2022/09/18 12:08:46;;;;;;;3.60;0.75;;;17.10;70.30;;;;;;5033268;28;20029;-70
2022/09/18 12:11:30;;;;;;;2.85;0.55;;;17.20;70.30;;;;;;5031862;28;20060;-70
2022/09/18 12:14:15;;;;;;;3.72;0.93;;;17.20;71.20;;;;;;5037563;28;20043;-70
2022/09/18 12:17:10;;;;;;;1.52;0.50;;;17.20;70.10;;;;;;5041265;28;20020;-70
2022/09/18 12:19:53;;;;;;;4.65;1.00;;;17.00;69.40;;;;;;5036184;28;20036;-71
2022/09/18 12:22:48;;;;;;;11.38;1.35;;;16.80;74.70;;;;;;5035937;28;20456;-70
2022/09/18 12:25:17;;;;;;;7.63;0.90;;;16.50;77.60;;;;;;5034989;28;20052;-70
2022/09/18 12:28:20;;;;;;;5.00;0.82;;;16.20;80.00;;;;;;5030178;28;20087;-71
2022/09/18 12:31:03;;;;;;;1.33;0.63;;;15.90;81.60;;;;;;5039208;28;20750;-71
2022/09/18 12:33:54;;;;;;;7.47;1.10;;;15.70;83.20;;;;;;5041137;28;20136;-71
2022/09/18 12:36:38;;;;;;;3.67;0.77;;;15.50;85.90;;;;;;5039480;28;20414;-71
2022/09/18 12:39:38;;;;;;;2.00;0.50;;;15.50;87.90;;;;;;5036398;28;20127;-71
2022/09/18 12:42:31;;;;;;;4.05;0.57;;;15.50;89.30;;;;;;5035915;28;20144;-71
2022/09/18 12:45:03;;;;;;;3.22;0.70;;;15.60;90.40;;;;;;5035276;28;20028;-71
2022/09/18 12:48:00;;;;;;;4.15;0.60;;;15.70;90.20;;;;;;5033763;28;20059;-70
2022/09/18 12:51:05;;;;;;;2.30;0.50;;;15.80;88.40;;;;;;5037384;28;20037;-70
2022/09/18 12:54:34;;;;;;;2.95;0.65;;;15.80;85.70;;;;;;5033256;28;20705;-71
2022/09/18 12:56:59;;;;;;;3.45;0.60;;;15.90;87.30;;;;;;5039083;28;20052;-71
2022/09/18 12:59:28;;;;;;;4.05;0.70;;;15.80;85.50;;;;;;5036265;28;20040;-71
2022/09/18 13:02:09;;;;;;;5.90;1.10;;;15.60;86.80;;;;;;5038625;28;20033;-71
2022/09/18 13:04:44;;;;;;;4.88;0.75;;;15.30;81.20;;;;;;5034596;28;20029;-70
2022/09/18 13:07:28;;;;;;;5.70;0.65;;;14.90;82.00;;;;;;5031736;28;20103;-71
2022/09/18 13:10:32;;;;;;;4.50;1.02;;;14.50;84.60;;;;;;5037953;28;20435;-71
2022/09/18 13:12:59;;;;;;;2.10;0.70;;;14.20;86.50;;;;;;5038404;28;20832;-70
2022/09/18 13:15:40;;;;;;;3.70;0.60;;;14.10;89.10;;;;;;5038015;28;20485;-70
2022/09/18 13:18:14;;;;;;;3.88;0.82;;;14.00;90.40;;;;;;5035670;28;20124;-70
2022/09/18 13:20:43;;;;;;;4.72;0.70;;;13.90;90.60;;;;;;5035351;28;20028;-70
2022/09/18 13:23:16;;;;;;;3.92;0.52;;;13.80;91.30;;;;;;5033091;28;20029;-71
2022/09/18 13:25:43;;;;;;;2.47;0.45;;;13.70;91.20;;;;;;5033466;28;20115;-70
2022/09/18 13:28:14;;;;;;;2.60;0.80;;;13.60;91.40;;;;;;5033132;28;20024;-71
2022/09/18 13:30:40;;;;;;;4.13;0.65;;;13.50;91.80;;;;;;5041464;28;20043;-69